Terminal Aerodrome Forecast
Issued by NWS

Home | Current Version | Previous Version | Text Only | Print | Product List | Glossary On
Versions: 1 2 3 4 5 6 7 8 9 10 11 12 13 14 15 16 17 18 19 20 21 22 23 24
433
FTUS41 KPBZ 011738 AAC
TAFHLG
TAF AMD
KHLG 011738Z 0118/0218 00000KT P6SM VCSH BKN025
     FM020600 20004KT P6SM BKN025
     FM021300 20005KT P6SM BKN008
     FM021500 22006KT P6SM VCSH BKN015
     FM021700 23007KT P6SM VCSH BKN025=

USA.gov is the U.S. government's official web portal to all federal, state and local government web resources and services.